Time;durP1;ratioP1;P1;durP2;ratioP2;P2;SDS_P1;SDS_P2;PMS_P1;PMS_P2;Temp;Humidity;BMP_temperature;BMP_pressure;BME280_temperature;BME280_humidity;BME280_pressure;Samples;Min_cycle;Max_cycle;Signal;HPM_P1;HPM_P2
2023/07/15 00:01:06;;;;;;;0.63;0.52;;;19.20;1.00;;;;;;4811688;29;20050;-89
2023/07/15 00:03:32;;;;;;;0.60;0.60;;;19.10;1.00;;;;;;4812120;29;20093;-89
2023/07/15 00:05:58;;;;;;;;;;;19.10;1.00;;;;;;4827424;29;20140;-89
2023/07/15 00:08:24;;;;;;;0.60;0.60;;;19.10;1.00;;;;;;4826513;29;20016;-89
2023/07/15 00:10:50;;;;;;;0.63;0.50;;;19.10;1.00;;;;;;4826782;29;20046;-90
2023/07/15 00:13:17;;;;;;;0.45;0.45;;;19.10;1.00;;;;;;4826427;29;20049;-89
2023/07/15 00:15:47;;;;;;;0.60;0.60;;;19.00;1.00;;;;;;4826880;29;20388;-90
2023/07/15 00:18:14;;;;;;;0.57;0.57;;;19.00;1.00;;;;;;4825982;29;20054;-89
2023/07/15 00:20:44;;;;;;;1.27;0.55;;;19.00;1.00;;;;;;4826850;29;20054;-89
2023/07/15 00:23:24;;;;;;;0.50;0.50;;;19.00;1.00;;;;;;4826306;29;20491;-89
2023/07/15 00:25:51;;;;;;;0.60;0.60;;;18.90;1.00;;;;;;4811539;29;20509;-89
2023/07/15 00:28:18;;;;;;;0.93;0.60;;;18.90;1.00;;;;;;4825992;29;20592;-89
2023/07/15 00:30:44;;;;;;;0.43;0.43;;;18.90;1.00;;;;;;4811510;29;20062;-89
2023/07/15 00:33:15;;;;;;;0.30;0.30;;;18.90;1.00;;;;;;4826210;29;20049;-89
2023/07/15 00:35:43;;;;;;;0.60;0.60;;;18.90;1.00;;;;;;4826771;29;20129;-89
2023/07/15 00:38:10;;;;;;;0.40;0.32;;;18.80;1.00;;;;;;4826205;29;20387;-89
2023/07/15 00:40:47;;;;;;;0.47;0.47;;;18.90;1.00;;;;;;4826581;29;20053;-89
2023/07/15 00:43:50;;;;;;;0.40;0.40;;;18.80;1.00;;;;;;4826208;29;20046;-89
2023/07/15 00:46:22;;;;;;;0.40;0.40;;;18.80;1.00;;;;;;4826035;29;20388;-89
2023/07/15 00:48:55;;;;;;;0.40;0.40;;;18.80;1.00;;;;;;4826301;29;20049;-89
2023/07/15 00:51:22;;;;;;;0.35;0.35;;;18.80;1.00;;;;;;4825867;29;20054;-89
2023/07/15 00:53:49;;;;;;;0.20;0.20;;;18.80;1.00;;;;;;4810789;29;20136;-89
2023/07/15 00:56:15;;;;;;;0.68;0.68;;;18.90;1.00;;;;;;4825555;29;20038;-90
2023/07/15 00:58:41;;;;;;;1.00;0.50;;;18.80;1.00;;;;;;4810974;29;20057;-89
2023/07/15 01:01:10;;;;;;;0.57;0.57;;;18.80;99.90;;;;;;4826265;29;20046;-89
2023/07/15 01:03:39;;;;;;;0.60;0.60;;;18.90;99.90;;;;;;4826810;29;20380;-89
2023/07/15 01:06:08;;;;;;;0.28;0.28;;;18.90;99.90;;;;;;4825960;29;20058;-89
2023/07/15 01:08:34;;;;;;;0.68;0.68;;;18.90;99.90;;;;;;4825258;29;20538;-89
2023/07/15 01:10:59;;;;;;;0.57;0.57;;;18.90;99.90;;;;;;4826041;29;20054;-89
2023/07/15 01:13:25;;;;;;;0.22;0.22;;;18.90;99.90;;;;;;4825728;29;20463;-89
2023/07/15 01:15:51;;;;;;;0.45;0.45;;;18.90;99.90;;;;;;4826231;29;20053;-90
2023/07/15 01:18:16;;;;;;;0.43;0.43;;;19.00;99.90;;;;;;4825635;29;20054;-91
2023/07/15 01:20:42;;;;;;;0.88;0.68;;;19.00;99.90;;;;;;4841410;29;20140;-89
2023/07/15 01:23:08;;;;;;;0.40;0.40;;;19.00;99.90;;;;;;4825601;29;20053;-89
2023/07/15 01:25:34;;;;;;;0.55;0.40;;;19.00;99.90;;;;;;4825414;29;20065;-89
2023/07/15 01:27:59;;;;;;;0.55;0.30;;;19.00;99.90;;;;;;4825895;29;20110;-89
2023/07/15 01:30:25;;;;;;;0.38;0.38;;;19.10;99.90;;;;;;4825014;29;20064;-91
2023/07/15 01:32:51;;;;;;;0.30;0.30;;;19.10;99.90;;;;;;4825336;29;20050;-90
2023/07/15 01:35:16;;;;;;;0.50;0.30;;;19.10;1.00;;;;;;4810213;29;20053;-89
2023/07/15 01:37:42;;;;;;;0.70;0.30;;;19.10;1.00;;;;;;4825868;29;20111;-90
2023/07/15 01:40:09;;;;;;;0.57;0.57;;;19.10;1.00;;;;;;4810693;29;20081;-89
2023/07/15 01:42:35;;;;;;;0.55;0.25;;;19.20;1.00;;;;;;4825422;29;20658;-91
2023/07/15 01:45:03;;;;;;;0.30;0.30;;;19.20;1.00;;;;;;4825636;29;20535;-89
2023/07/15 01:47:29;;;;;;;0.35;0.35;;;19.20;99.90;;;;;;4825173;29;20054;-88
2023/07/15 01:49:54;;;;;;;0.30;0.30;;;19.20;99.90;;;;;;4824920;29;20517;-89
2023/07/15 01:52:20;;;;;;;0.40;0.40;;;19.20;99.90;;;;;;4840131;29;20050;-89
2023/07/15 01:54:46;;;;;;;0.45;0.45;;;19.20;99.90;;;;;;4810530;29;20065;-89
2023/07/15 01:57:11;;;;;;;0.75;0.50;;;19.20;99.90;;;;;;4825568;29;20407;-89
2023/07/15 01:59:37;;;;;;;0.30;0.30;;;19.20;50.00;;;;;;4825172;29;20116;-90
2023/07/15 02:02:03;;;;;;;0.57;0.57;;;19.20;71.30;;;;;;4825783;29;20054;-89
2023/07/15 02:04:29;;;;;;;0.40;0.35;;;19.30;1.00;;;;;;4826725;29;20102;-89
2023/07/15 02:06:54;;;;;;;0.30;0.30;;;19.20;99.90;;;;;;4828713;29;20046;-90
2023/07/15 02:09:23;;;;;;;0.55;0.45;;;19.30;97.30;;;;;;4828161;29;20050;-88
2023/07/15 02:11:49;;;;;;;0.40;0.30;;;19.30;99.90;;;;;;4828454;29;20050;-90
2023/07/15 02:14:14;;;;;;;0.47;0.47;;;19.30;99.90;;;;;;4828497;29;20054;-89
2023/07/15 02:16:40;;;;;;;0.30;0.30;;;19.30;1.00;;;;;;4828364;29;20041;-89
2023/07/15 02:19:06;;;;;;;0.65;0.47;;;19.40;24.10;;;;;;4813539;29;20119;-89
2023/07/15 02:21:32;;;;;;;0.68;0.50;;;19.40;99.90;;;;;;4828254;29;20049;-89
2023/07/15 02:23:59;;;;;;;0.38;0.38;;;19.30;99.90;;;;;;4828429;29;20456;-89
2023/07/15 02:26:25;;;;;;;0.20;0.20;;;19.40;99.90;;;;;;4828116;29;20064;-89
2023/07/15 02:28:50;;;;;;;0.65;0.60;;;19.30;99.90;;;;;;4828262;29;20054;-90
2023/07/15 02:31:16;;;;;;;1.88;1.42;;;19.40;62.40;;;;;;4843918;29;20057;-89
2023/07/15 02:33:42;;;;;;;0.63;0.63;;;19.30;99.90;;;;;;4813231;29;20056;-89
2023/07/15 02:36:07;;;;;;;1.25;0.35;;;19.30;99.90;;;;;;4828568;29;20053;-89
2023/07/15 02:38:33;;;;;;;0.25;0.20;;;19.30;99.90;;;;;;4828001;29;20403;-89
2023/07/15 02:40:59;;;;;;;0.55;0.55;;;19.30;99.90;;;;;;4828428;29;20049;-89
2023/07/15 02:43:24;;;;;;;0.63;0.40;;;19.20;99.90;;;;;;4827703;29;20416;-89
2023/07/15 02:45:50;;;;;;;0.35;0.35;;;19.20;99.90;;;;;;4813407;29;20046;-89
2023/07/15 02:48:16;;;;;;;0.45;0.45;;;19.20;1.00;;;;;;4813333;29;20065;-89
2023/07/15 02:50:42;;;;;;;0.35;0.35;;;19.20;62.50;;;;;;4812625;29;20654;-90
2023/07/15 02:53:07;;;;;;;0.50;0.50;;;19.20;35.10;;;;;;4828158;29;20519;-89
2023/07/15 02:55:33;;;;;;;0.52;0.32;;;19.20;1.00;;;;;;4812652;29;20060;-89
2023/07/15 02:57:59;;;;;;;0.25;0.25;;;19.20;36.60;;;;;;4828100;29;20132;-89
2023/07/15 03:00:25;;;;;;;0.40;0.40;;;19.10;1.00;;;;;;4827553;29;20499;-88
2023/07/15 03:02:51;;;;;;;0.50;0.50;;;19.10;99.90;;;;;;4827992;29;20050;-89
2023/07/15 03:05:17;;;;;;;0.43;0.20;;;19.00;99.90;;;;;;4827981;29;20526;-89
2023/07/15 03:07:44;;;;;;;0.75;0.75;;;19.00;99.90;;;;;;4827528;29;20042;-90
2023/07/15 03:10:15;;;;;;;0.50;0.50;;;18.90;1.00;;;;;;4827293;29;20091;-89
2023/07/15 03:12:42;;;;;;;0.32;0.30;;;18.90;99.90;;;;;;4827270;29;20136;-90
2023/07/15 03:15:09;;;;;;;0.30;0.30;;;18.90;1.00;;;;;;4827645;29;20388;-89
2023/07/15 03:17:35;;;;;;;0.50;0.50;;;18.90;64.60;;;;;;4827349;29;20056;-90
2023/07/15 03:20:29;;;;;;;0.65;0.40;;;18.80;49.90;;;;;;4827759;29;20385;-89
2023/07/15 03:22:54;;;;;;;0.25;0.25;;;18.80;99.90;;;;;;4826865;29;20054;-90
2023/07/15 03:25:20;;;;;;;0.70;0.60;;;18.80;1.00;;;;;;4827707;29;20561;-89
2023/07/15 03:27:50;;;;;;;0.47;0.47;;;18.80;87.70;;;;;;4827114;29;20200;-90
2023/07/15 03:30:16;;;;;;;0.20;0.20;;;18.80;99.90;;;;;;4827158;29;20057;-89
2023/07/15 03:32:43;;;;;;;0.30;0.20;;;18.70;99.90;;;;;;4827062;29;20068;-90
2023/07/15 03:35:09;;;;;;;0.57;0.50;;;18.70;99.90;;;;;;4827582;29;20128;-90
2023/07/15 03:37:36;;;;;;;0.13;0.13;;;18.70;99.90;;;;;;4842072;29;20053;-90
2023/07/15 03:40:07;;;;;;;0.10;0.10;;;18.70;99.90;;;;;;4827579;29;20471;-90
2023/07/15 03:42:40;;;;;;;0.35;0.35;;;18.70;99.90;;;;;;4826690;29;20619;-90
2023/07/15 03:45:07;;;;;;;0.32;0.30;;;18.70;99.90;;;;;;4812100;29;20089;-89
2023/07/15 03:47:36;;;;;;;0.60;0.60;;;18.70;99.90;;;;;;4827070;29;20406;-89
2023/07/15 03:50:06;;;;;;;0.40;0.40;;;18.60;1.00;;;;;;4812269;29;20050;-89
2023/07/15 03:52:32;;;;;;;0.75;0.47;;;18.70;1.00;;;;;;4826881;29;20089;-88
2023/07/15 03:54:59;;;;;;;0.25;0.22;;;18.60;45.10;;;;;;4811558;29;20470;-90
2023/07/15 03:57:25;;;;;;;0.22;0.22;;;18.60;99.90;;;;;;4827293;29;20053;-90
2023/07/15 03:59:51;;;;;;;0.30;0.30;;;18.60;99.90;;;;;;4826685;29;20113;-90
2023/07/15 04:02:17;;;;;;;0.32;0.32;;;18.60;15.60;;;;;;4827183;29;20054;-89
2023/07/15 04:04:43;;;;;;;0.40;0.40;;;18.50;1.00;;;;;;4826577;29;20399;-90
2023/07/15 04:07:09;;;;;;;0.68;0.50;;;18.50;99.90;;;;;;4826863;29;20140;-90
2023/07/15 04:09:35;;;;;;;0.20;0.20;;;18.40;99.90;;;;;;4826241;29;20148;-89
2023/07/15 04:12:06;;;;;;;0.47;0.40;;;18.40;99.90;;;;;;4811725;29;20122;-90
2023/07/15 04:14:32;;;;;;;0.60;0.50;;;18.40;99.90;;;;;;4827134;29;20468;-88
2023/07/15 04:16:57;;;;;;;0.22;0.22;;;18.40;99.90;;;;;;4811269;29;20057;-89
2023/07/15 04:19:23;;;;;;;0.30;0.28;;;18.40;99.90;;;;;;4826679;29;20058;-90
2023/07/15 04:21:49;;;;;;;0.33;0.33;;;18.30;99.90;;;;;;4811352;29;20050;-90
2023/07/15 04:24:14;;;;;;;0.98;0.98;;;18.40;25.00;;;;;;4826870;29;20390;-90
2023/07/15 04:26:40;;;;;;;1.05;1.05;;;18.30;99.90;;;;;;4841056;29;20057;-90
2023/07/15 04:29:07;;;;;;;0.50;0.50;;;18.40;99.90;;;;;;4841182;29;20574;-90
2023/07/15 04:31:33;;;;;;;1.17;0.57;;;18.30;99.90;;;;;;4827663;29;20380;-90
2023/07/15 04:33:58;;;;;;;0.40;0.40;;;18.30;99.90;;;;;;4811019;29;20065;-90
2023/07/15 04:36:24;;;;;;;0.40;0.40;;;18.30;99.90;;;;;;4826352;29;20056;-90
2023/07/15 04:38:50;;;;;;;0.30;0.30;;;18.30;99.90;;;;;;4826228;29;20061;-90
2023/07/15 04:41:16;;;;;;;0.40;0.40;;;18.40;99.90;;;;;;4826601;29;20065;-90
2023/07/15 04:43:41;;;;;;;0.40;0.40;;;18.40;99.90;;;;;;4826108;29;20386;-90
2023/07/15 04:46:07;;;;;;;0.82;0.40;;;18.40;99.90;;;;;;4826530;29;20057;-91
2023/07/15 04:48:34;;;;;;;0.32;0.32;;;18.50;99.90;;;;;;4826350;29;20046;-90
2023/07/15 04:51:00;;;;;;;0.28;0.22;;;18.60;99.90;;;;;;4825984;29;20445;-90
2023/07/15 04:53:26;;;;;;;0.35;0.30;;;18.70;99.90;;;;;;4826353;29;20100;-89
2023/07/15 04:55:52;;;;;;;0.20;0.20;;;18.70;99.90;;;;;;4825995;29;20089;-90
2023/07/15 04:58:18;;;;;;;;;;;18.80;99.90;;;;;;4826574;29;20065;-90
2023/07/15 05:00:45;;;;;;;0.85;0.35;;;18.80;99.90;;;;;;4825870;29;19928;-90
2023/07/15 05:03:12;;;;;;;0.30;0.30;;;18.80;99.90;;;;;;4826233;29;20407;-90
2023/07/15 05:05:39;;;;;;;0.35;0.35;;;18.80;99.90;;;;;;4811023;29;20057;-90
2023/07/15 05:08:16;;;;;;;0.63;0.30;;;18.80;99.90;;;;;;4825901;29;20137;-90
2023/07/15 05:10:43;;;;;;;0.20;0.20;;;19.00;99.90;;;;;;4825846;29;20475;-88
2023/07/15 05:13:09;;;;;;;0.22;0.22;;;19.20;99.90;;;;;;4826138;29;20049;-90
2023/07/15 05:15:35;;;;;;;;;;;19.70;1.00;;;;;;4811243;29;20049;-91
2023/07/15 05:18:01;;;;;;;0.40;0.40;;;20.40;62.60;;;;;;4825544;29;19924;-90
2023/07/15 05:20:27;;;;;;;0.32;0.32;;;21.00;99.90;;;;;;4810934;29;20105;-90
2023/07/15 05:22:53;;;;;;;0.30;0.30;;;21.40;99.90;;;;;;4825551;29;20136;-90
2023/07/15 05:25:19;;;;;;;0.15;0.15;;;21.60;99.90;;;;;;4825914;29;20053;-90
2023/07/15 05:27:45;;;;;;;0.25;0.25;;;21.70;1.00;;;;;;4825106;29;20412;-90
2023/07/15 05:30:11;;;;;;;0.52;0.47;;;21.70;99.90;;;;;;4825495;29;20062;-90
2023/07/15 05:32:37;;;;;;;0.10;0.10;;;21.60;99.90;;;;;;4825857;29;20050;-90
2023/07/15 05:35:04;;;;;;;0.38;0.30;;;21.50;99.90;;;;;;4825534;29;20050;-90
2023/07/15 05:37:29;;;;;;;0.20;0.20;;;21.40;99.90;;;;;;4825711;29;20137;-90
2023/07/15 05:39:55;;;;;;;0.35;0.35;;;21.40;99.90;;;;;;4812591;29;20141;-89
2023/07/15 05:42:21;;;;;;;0.30;0.30;;;21.30;1.00;;;;;;4829655;29;20566;-90
2023/07/15 05:44:46;;;;;;;0.22;0.22;;;21.40;1.00;;;;;;4828821;29;20057;-89
2023/07/15 05:47:12;;;;;;;0.20;0.20;;;21.40;1.00;;;;;;4829368;29;20092;-89
2023/07/15 05:49:38;;;;;;;0.47;0.47;;;21.40;99.90;;;;;;4829038;29;20068;-90
2023/07/15 05:52:04;;;;;;;0.30;0.30;;;21.40;99.90;;;;;;4828673;29;20050;-89
2023/07/15 05:54:29;;;;;;;0.40;0.40;;;21.40;99.90;;;;;;4829118;29;20384;-90
2023/07/15 05:56:55;;;;;;;0.30;0.30;;;21.40;99.90;;;;;;4828540;29;20057;-89
2023/07/15 05:59:21;;;;;;;0.20;0.10;;;21.40;99.90;;;;;;4813991;29;20085;-90
2023/07/15 06:01:47;;;;;;;0.80;0.40;;;21.40;99.90;;;;;;4828826;29;20050;-88
2023/07/15 06:04:14;;;;;;;0.22;0.22;;;21.40;99.90;;;;;;4828909;29;20549;-90
2023/07/15 06:06:40;;;;;;;0.30;0.30;;;21.50;99.90;;;;;;4828877;29;20145;-89
2023/07/15 06:09:06;;;;;;;0.20;0.20;;;21.50;99.90;;;;;;4813437;29;20049;-89
2023/07/15 06:11:32;;;;;;;1.45;0.40;;;21.60;99.90;;;;;;4813761;29;20062;-90
2023/07/15 06:14:00;;;;;;;0.50;0.30;;;21.70;99.90;;;;;;4828340;29;20269;-90
2023/07/15 06:16:26;;;;;;;0.57;0.57;;;21.80;1.00;;;;;;4828952;29;20129;-89
2023/07/15 06:18:52;;;;;;;0.43;0.25;;;22.00;1.00;;;;;;4828340;29;20096;-88
2023/07/15 06:21:18;;;;;;;0.68;0.50;;;22.00;68.60;;;;;;4828629;29;20093;-89
2023/07/15 06:23:44;;;;;;;0.35;0.35;;;22.00;1.00;;;;;;4828727;29;20144;-89
2023/07/15 06:26:09;;;;;;;0.45;0.45;;;22.00;40.20;;;;;;4828089;29;20667;-89
2023/07/15 06:28:35;;;;;;;0.40;0.40;;;22.00;99.90;;;;;;4813229;29;20094;-90
2023/07/15 06:31:08;;;;;;;0.30;0.20;;;22.10;99.90;;;;;;4828239;29;20403;-91
2023/07/15 06:33:34;;;;;;;0.30;0.30;;;22.10;99.90;;;;;;4813507;29;20054;-89
2023/07/15 06:36:01;;;;;;;0.50;0.30;;;22.10;99.90;;;;;;4813044;29;20132;-91
2023/07/15 06:38:30;;;;;;;0.40;0.40;;;22.10;99.90;;;;;;4812912;29;20050;-90
2023/07/15 06:40:56;;;;;;;0.32;0.32;;;22.00;99.90;;;;;;4827728;29;20068;-90
2023/07/15 06:43:22;;;;;;;0.60;0.60;;;22.00;1.00;;;;;;4828171;29;20049;-91
2023/07/15 06:45:48;;;;;;;0.60;0.60;;;22.10;99.90;;;;;;4813363;29;20046;-91
2023/07/15 06:48:13;;;;;;;0.35;0.20;;;22.10;99.60;;;;;;4828016;29;20054;-90
2023/07/15 06:50:40;;;;;;;0.63;0.63;;;22.20;99.90;;;;;;4812545;29;20052;-90
2023/07/15 06:53:06;;;;;;;0.30;0.30;;;22.30;95.30;;;;;;4827425;29;20057;-91
2023/07/15 06:55:32;;;;;;;;;;;22.30;99.90;;;;;;4828563;29;20053;-90
2023/07/15 06:57:58;;;;;;;0.20;0.20;;;22.40;99.90;;;;;;4843198;29;19924;-91
2023/07/15 07:00:24;;;;;;;0.30;0.30;;;22.40;99.90;;;;;;4812858;29;20087;-90
2023/07/15 07:02:50;;;;;;;0.35;0.35;;;22.40;99.90;;;;;;4827904;29;20062;-92
2023/07/15 07:05:19;;;;;;;0.15;0.15;;;22.50;99.90;;;;;;4827492;29;20053;-91
2023/07/15 07:07:45;;;;;;;0.20;0.20;;;22.60;1.00;;;;;;4827797;29;20050;-91
2023/07/15 07:10:11;;;;;;;0.47;0.32;;;22.80;1.70;;;;;;4827308;29;20097;-91
2023/07/15 07:12:37;;;;;;;0.40;0.40;;;22.80;99.90;;;;;;4827847;29;20081;-91
2023/07/15 07:15:06;;;;;;;0.30;0.30;;;22.80;99.90;;;;;;4827204;29;20109;-92
2023/07/15 07:17:32;;;;;;;0.20;0.20;;;22.90;1.00;;;;;;4827533;29;20053;-90
2023/07/15 07:19:58;;;;;;;0.40;0.40;;;22.90;1.00;;;;;;4827187;29;20132;-89
2023/07/15 07:22:24;;;;;;;0.68;0.32;;;22.90;99.90;;;;;;4827495;29;20061;-92
2023/07/15 07:24:52;;;;;;;0.20;0.20;;;23.00;99.90;;;;;;4812480;29;20050;-91
2023/07/15 07:27:19;;;;;;;0.30;0.30;;;23.20;1.00;;;;;;4826757;29;20535;-93
2023/07/15 07:29:45;;;;;;;0.20;0.20;;;23.50;99.90;;;;;;4826591;29;20062;-90
2023/07/15 07:32:11;;;;;;;0.30;0.30;;;23.60;1.00;;;;;;4827384;29;20108;-92
2023/07/15 07:34:39;;;;;;;0.30;0.30;;;23.70;99.90;;;;;;4827266;29;20456;-89
2023/07/15 07:37:05;;;;;;;0.28;0.28;;;23.70;99.90;;;;;;4827015;29;20058;-86
2023/07/15 07:39:31;;;;;;;0.30;0.30;;;23.70;1.00;;;;;;4842316;29;20384;-87
2023/07/15 07:41:56;;;;;;;0.10;0.10;;;23.70;99.90;;;;;;4826776;29;20053;-86
2023/07/15 07:44:22;;;;;;;0.30;0.30;;;23.70;99.90;;;;;;4811602;29;20054;-87
2023/07/15 07:46:48;;;;;;;;;;;23.60;1.00;;;;;;4843241;29;20487;-87
2023/07/15 07:49:14;;;;;;;1.00;0.38;;;23.60;1.00;;;;;;4827057;29;20018;-87
2023/07/15 07:51:40;;;;;;;0.40;0.40;;;23.60;99.90;;;;;;4827385;29;20060;-87
2023/07/15 07:54:05;;;;;;;0.38;0.35;;;23.50;99.90;;;;;;4811885;29;20495;-87
2023/07/15 07:56:32;;;;;;;0.43;0.30;;;23.60;99.90;;;;;;4843498;29;20053;-87
2023/07/15 07:58:59;;;;;;;0.22;0.22;;;23.50;99.90;;;;;;4827194;29;20054;-87
2023/07/15 08:01:25;;;;;;;0.10;0.10;;;23.60;99.90;;;;;;4826271;29;20457;-87
2023/07/15 08:03:53;;;;;;;0.10;0.10;;;23.60;1.00;;;;;;4826518;29;20536;-87
2023/07/15 08:06:20;;;;;;;0.35;0.35;;;23.70;24.70;;;;;;4826246;29;20054;-87
2023/07/15 08:08:46;;;;;;;0.30;0.30;;;23.80;39.00;;;;;;4826317;29;20054;-87
2023/07/15 08:11:12;;;;;;;0.20;0.20;;;23.90;55.80;;;;;;4826709;29;20066;-95
2023/07/15 08:13:37;;;;;;;0.30;0.30;;;24.00;99.90;;;;;;4811441;29;20511;-89
2023/07/15 08:16:03;;;;;;;0.38;0.30;;;24.10;1.00;;;;;;4826586;29;20064;-86
2023/07/15 08:18:29;;;;;;;;;;;24.00;99.90;;;;;;4827016;29;20060;-89
2023/07/15 08:20:55;;;;;;;0.70;0.45;;;24.10;1.00;;;;;;4841560;29;20014;-89
2023/07/15 08:23:20;;;;;;;0.32;0.25;;;24.10;1.00;;;;;;4826283;29;20048;-91
2023/07/15 08:25:46;;;;;;;;;;;24.20;1.00;;;;;;4826825;29;20130;-91
2023/07/15 08:28:12;;;;;;;0.30;0.30;;;24.20;99.90;;;;;;4826131;29;20339;-91
2023/07/15 08:30:37;;;;;;;0.32;0.32;;;24.20;99.90;;;;;;4841196;29;20095;-89
2023/07/15 08:33:04;;;;;;;0.10;0.10;;;24.20;99.90;;;;;;4826353;29;20096;-90
2023/07/15 08:35:30;;;;;;;0.28;0.20;;;24.10;99.90;;;;;;4826211;29;20045;-92
2023/07/15 08:37:56;;;;;;;0.10;0.10;;;24.10;1.00;;;;;;4841619;29;20053;-90
2023/07/15 08:40:24;;;;;;;0.22;0.20;;;24.20;99.90;;;;;;4826101;29;20086;-90
2023/07/15 08:42:50;;;;;;;0.20;0.20;;;24.30;69.00;;;;;;4826416;29;20056;-88
2023/07/15 08:45:17;;;;;;;;;;;24.40;99.90;;;;;;4815688;29;20481;-89
2023/07/15 08:47:44;;;;;;;0.10;0.10;;;24.30;41.20;;;;;;4826332;29;19976;-88
2023/07/15 08:50:18;;;;;;;0.47;0.43;;;24.30;99.90;;;;;;4841811;29;20082;-87
2023/07/15 08:52:44;;;;;;;2.20;0.30;;;24.30;11.60;;;;;;4825968;29;20062;-88
2023/07/15 08:55:11;;;;;;;0.20;0.20;;;24.30;99.90;;;;;;4810497;29;20054;-86
2023/07/15 08:57:36;;;;;;;0.30;0.30;;;24.20;99.90;;;;;;4826100;29;20129;-87
2023/07/15 09:00:10;;;;;;;0.40;0.40;;;24.10;99.90;;;;;;4826094;29;20529;-88
2023/07/15 09:02:39;;;;;;;0.32;0.32;;;24.00;99.90;;;;;;4811070;29;20060;-88
2023/07/15 09:05:09;;;;;;;0.25;0.25;;;23.90;99.90;;;;;;4841773;29;20054;-89
2023/07/15 09:07:54;;;;;;;0.70;0.40;;;23.90;63.30;;;;;;4809589;29;20053;-89
2023/07/15 09:10:20;;;;;;;0.13;0.13;;;24.00;99.90;;;;;;4809784;29;20053;-88
2023/07/15 09:12:47;;;;;;;0.20;0.20;;;23.90;99.90;;;;;;4841964;29;20054;-88
2023/07/15 09:15:16;;;;;;;0.20;0.20;;;24.00;99.90;;;;;;4840085;29;20137;-87
2023/07/15 09:17:53;;;;;;;0.45;0.45;;;23.90;67.40;;;;;;4809541;29;20084;-88
2023/07/15 09:20:20;;;;;;;0.32;0.32;;;23.90;99.90;;;;;;4825213;29;20054;-89
2023/07/15 09:22:58;;;;;;;0.38;0.28;;;23.90;75.20;;;;;;4825249;29;20067;-89
2023/07/15 09:25:25;;;;;;;0.20;0.15;;;23.90;99.90;;;;;;4825057;29;20050;-88
2023/07/15 09:27:52;;;;;;;0.30;0.22;;;23.90;99.90;;;;;;4840187;29;20129;-88
2023/07/15 09:30:19;;;;;;;0.20;0.20;;;24.00;99.90;;;;;;4824141;29;20146;-88
2023/07/15 09:32:45;;;;;;;0.50;0.40;;;24.10;99.90;;;;;;4825168;29;20168;-88
2023/07/15 09:35:11;;;;;;;0.15;0.15;;;24.10;96.80;;;;;;4841464;29;20109;-89
2023/07/15 09:37:38;;;;;;;0.20;0.20;;;24.00;99.90;;;;;;4824948;29;20054;-89
2023/07/15 09:40:08;;;;;;;0.30;0.30;;;24.10;99.90;;;;;;4813233;29;20061;-87
2023/07/15 09:42:57;;;;;;;0.52;0.30;;;24.10;99.90;;;;;;4825915;29;20066;-92
2023/07/15 09:45:35;;;;;;;0.20;0.20;;;24.10;99.90;;;;;;4822080;29;20460;-90
2023/07/15 09:48:09;;;;;;;0.20;0.20;;;24.20;99.90;;;;;;4825103;29;20038;-90
2023/07/15 09:50:36;;;;;;;0.45;0.30;;;24.30;99.90;;;;;;4809584;29;20046;-91
2023/07/15 09:53:03;;;;;;;0.30;0.30;;;24.50;1.00;;;;;;4825155;29;20054;-91
2023/07/15 09:55:30;;;;;;;0.20;0.20;;;24.60;1.00;;;;;;4840111;29;20046;-91
2023/07/15 09:58:12;;;;;;;0.30;0.30;;;24.50;99.90;;;;;;4825237;29;20158;-92
2023/07/15 10:00:42;;;;;;;0.35;0.35;;;24.50;1.00;;;;;;4839867;29;20054;-91
2023/07/15 10:03:17;;;;;;;0.20;0.20;;;24.50;99.90;;;;;;4824841;29;20061;-89
2023/07/15 10:05:45;;;;;;;0.20;0.20;;;24.40;1.00;;;;;;4809794;29;20057;-89
2023/07/15 10:08:12;;;;;;;0.32;0.32;;;24.30;99.90;;;;;;4810453;29;20054;-90
2023/07/15 10:10:39;;;;;;;0.10;0.10;;;24.30;1.00;;;;;;4839563;29;20514;-90
2023/07/15 10:13:05;;;;;;;0.20;0.20;;;24.20;99.90;;;;;;4824914;29;20460;-90
2023/07/15 10:15:31;;;;;;;1.00;0.40;;;24.20;99.90;;;;;;4824913;29;20050;-90
2023/07/15 10:18:12;;;;;;;;;;;24.30;15.80;;;;;;4825771;29;20050;-90
2023/07/15 10:20:41;;;;;;;0.55;0.43;;;24.90;99.90;;;;;;4825033;29;19924;-90
2023/07/15 10:23:12;;;;;;;0.20;0.20;;;24.40;99.90;;;;;;4825313;29;20403;-90
2023/07/15 10:25:42;;;;;;;0.10;0.10;;;24.40;99.90;;;;;;4811459;29;20061;-90
2023/07/15 10:28:14;;;;;;;0.22;0.20;;;24.50;99.90;;;;;;4813498;29;20117;-90
2023/07/15 10:31:08;;;;;;;0.22;0.15;;;24.50;99.90;;;;;;4812646;29;20085;-90
2023/07/15 10:33:36;;;;;;;0.32;0.32;;;24.50;99.90;;;;;;4828073;29;20050;-90
2023/07/15 10:36:06;;;;;;;0.20;0.20;;;24.40;99.90;;;;;;4828382;29;20128;-88
2023/07/15 10:38:32;;;;;;;0.30;0.25;;;23.70;99.90;;;;;;4827805;29;20572;-88
2023/07/15 10:41:02;;;;;;;0.28;0.28;;;24.80;99.90;;;;;;4813610;29;20057;-89
2023/07/15 10:43:34;;;;;;;0.70;0.25;;;24.40;1.00;;;;;;4827989;29;20050;-90
2023/07/15 10:46:07;;;;;;;0.38;0.30;;;24.40;1.00;;;;;;4828072;29;20057;-89
2023/07/15 10:48:36;;;;;;;0.20;0.20;;;24.50;99.90;;;;;;4828011;29;20096;-91
2023/07/15 10:51:07;;;;;;;0.20;0.20;;;24.70;99.90;;;;;;4828029;29;20046;-89
2023/07/15 10:53:39;;;;;;;0.75;0.25;;;24.80;1.00;;;;;;4812771;29;20053;-89
2023/07/15 10:56:06;;;;;;;0.40;0.40;;;24.80;1.00;;;;;;4827904;29;20488;-90
2023/07/15 10:58:34;;;;;;;0.20;0.10;;;24.90;1.00;;;;;;4812596;29;20053;-88
2023/07/15 11:01:05;;;;;;;0.13;0.10;;;25.00;1.00;;;;;;4813006;29;20061;-90
2023/07/15 11:03:32;;;;;;;0.47;0.45;;;25.00;99.90;;;;;;4812567;29;20058;-89
2023/07/15 11:06:01;;;;;;;0.17;0.17;;;25.10;99.90;;;;;;4813038;29;20050;-89
2023/07/15 11:08:27;;;;;;;0.10;0.10;;;25.20;99.90;;;;;;4827636;29;20058;-89
2023/07/15 11:11:04;;;;;;;0.20;0.20;;;25.10;99.90;;;;;;4827876;29;20061;-89
2023/07/15 11:13:31;;;;;;;0.20;0.20;;;25.10;99.90;;;;;;4812591;29;20141;-88
2023/07/15 11:15:57;;;;;;;0.63;0.20;;;25.30;99.90;;;;;;4827885;29;20106;-90
2023/07/15 11:18:27;;;;;;;0.40;0.30;;;25.30;99.90;;;;;;4813400;29;20061;-90
2023/07/15 11:20:58;;;;;;;0.43;0.32;;;25.30;99.90;;;;;;4827670;29;20065;-89
2023/07/15 11:23:28;;;;;;;0.52;0.35;;;25.30;40.50;;;;;;4827927;29;20069;-90
2023/07/15 11:25:54;;;;;;;0.20;0.20;;;25.20;1.00;;;;;;4827551;29;20089;-89
2023/07/15 11:28:20;;;;;;;;;;;25.20;99.90;;;;;;4813044;29;20090;-89
2023/07/15 11:30:53;;;;;;;0.30;0.20;;;25.30;1.00;;;;;;4826918;29;19935;-90
2023/07/15 11:33:19;;;;;;;0.10;0.10;;;25.30;99.90;;;;;;4812591;29;20050;-89
2023/07/15 11:35:45;;;;;;;;;;;25.30;99.90;;;;;;4827060;29;20060;-88
2023/07/15 11:38:11;;;;;;;0.30;0.30;;;25.40;99.90;;;;;;4826876;29;19924;-88
2023/07/15 11:40:37;;;;;;;;;;;25.40;14.00;;;;;;4827068;29;20174;-89
2023/07/15 11:43:06;;;;;;;0.20;0.20;;;25.30;99.90;;;;;;4827626;29;20342;-90
2023/07/15 11:45:33;;;;;;;0.22;0.22;;;25.30;1.00;;;;;;4812239;29;20054;-88
2023/07/15 11:47:59;;;;;;;0.20;0.20;;;25.20;44.40;;;;;;4827471;29;20056;-89
2023/07/15 11:50:26;;;;;;;;;;;25.20;13.30;;;;;;4812230;29;20049;-89
2023/07/15 11:52:52;;;;;;;0.25;0.25;;;25.10;97.50;;;;;;4826979;29;19924;-89
2023/07/15 11:55:24;;;;;;;;;;;25.10;1.00;;;;;;4827650;29;20042;-89
2023/07/15 11:57:53;;;;;;;0.17;0.10;;;24.90;99.90;;;;;;4826784;29;19932;-90
2023/07/15 12:00:29;;;;;;;0.20;0.20;;;24.80;97.00;;;;;;4811498;29;20586;-89
2023/07/15 12:02:56;;;;;;;0.10;0.10;;;24.70;99.90;;;;;;4826781;29;20190;-89
2023/07/15 12:05:22;;;;;;;0.20;0.20;;;24.60;99.90;;;;;;4812013;29;20566;-89
2023/07/15 12:07:52;;;;;;;0.88;0.55;;;23.80;99.90;;;;;;4811531;29;20445;-89
2023/07/15 12:10:19;;;;;;;0.30;0.15;;;24.50;99.90;;;;;;4826758;29;20062;-90
2023/07/15 12:12:46;;;;;;;0.40;0.40;;;24.50;1.00;;;;;;4826722;29;20058;-89
2023/07/15 12:15:16;;;;;;;0.30;0.30;;;24.60;1.00;;;;;;4827026;29;20119;-89
2023/07/15 12:17:45;;;;;;;0.25;0.20;;;24.80;99.90;;;;;;4826657;29;20049;-90
2023/07/15 12:20:11;;;;;;;0.30;0.30;;;25.00;99.90;;;;;;4826827;29;20050;-89
2023/07/15 12:22:40;;;;;;;0.40;0.40;;;25.20;99.90;;;;;;4826898;29;20046;-88
2023/07/15 12:25:08;;;;;;;0.10;0.10;;;25.30;99.90;;;;;;4826595;29;20503;-88
2023/07/15 12:27:35;;;;;;;0.20;0.20;;;25.50;99.90;;;;;;4841890;29;20447;-89
2023/07/15 12:30:01;;;;;;;0.38;0.38;;;25.70;99.90;;;;;;4810532;29;20054;-90
2023/07/15 12:32:26;;;;;;;;;;;25.90;99.90;;;;;;4811499;29;20394;-89
2023/07/15 12:34:52;;;;;;;0.30;0.20;;;26.00;99.90;;;;;;4826064;29;19931;-88
2023/07/15 12:37:20;;;;;;;;;;;26.00;1.00;;;;;;4826752;29;20050;-89
2023/07/15 12:39:46;;;;;;;0.20;0.20;;;26.00;1.00;;;;;;4826121;29;19952;-88
2023/07/15 12:42:14;;;;;;;;;;;25.90;1.00;;;;;;4811364;29;20061;-89
2023/07/15 12:44:42;;;;;;;0.25;0.20;;;25.90;99.90;;;;;;4826401;29;19928;-88
2023/07/15 12:47:08;;;;;;;0.30;0.30;;;25.80;99.90;;;;;;4826363;29;20045;-89
2023/07/15 12:49:33;;;;;;;;;;;25.70;99.90;;;;;;4826437;29;20050;-88
2023/07/15 12:52:01;;;;;;;0.13;0.13;;;25.70;99.90;;;;;;4826074;29;19928;-89
2023/07/15 12:54:32;;;;;;;0.55;0.50;;;25.70;99.90;;;;;;4826435;29;20046;-89
2023/07/15 12:56:58;;;;;;;0.30;0.30;;;25.60;99.90;;;;;;4826000;29;20069;-90